Time;durP1;ratioP1;P1;durP2;ratioP2;P2;SDS_P1;SDS_P2;PMS_P1;PMS_P2;Temp;Humidity;BMP_temperature;BMP_pressure;BME280_temperature;BME280_humidity;BME280_pressure;Samples;Min_cycle;Max_cycle;Signal;HPM_P1;HPM_P2
2022/04/01 00:01:51;;;;;;;23.27;11.33;;;6.60;99.90;;;;;;5011695;28;20413;-53
2022/04/01 00:04:17;;;;;;;24.45;12.55;;;6.50;99.90;;;;;;5012783;28;20415;-53
2022/04/01 00:06:42;;;;;;;19.88;11.13;;;6.50;99.90;;;;;;5012774;28;20524;-53
2022/04/01 00:09:08;;;;;;;23.00;11.70;;;6.50;99.90;;;;;;5014866;28;20392;-53
2022/04/01 00:11:34;;;;;;;24.55;12.23;;;6.50;99.90;;;;;;5012735;28;20389;-53
2022/04/01 00:14:00;;;;;;;23.40;12.48;;;6.60;99.90;;;;;;5008040;28;21178;-53
2022/04/01 00:16:25;;;;;;;23.40;12.10;;;6.60;99.90;;;;;;5012221;28;20422;-53
2022/04/01 00:18:51;;;;;;;22.02;11.73;;;6.50;99.90;;;;;;5012483;28;20397;-53
2022/04/01 00:21:17;;;;;;;20.40;11.17;;;6.40;99.90;;;;;;5014754;28;20427;-53
2022/04/01 00:23:42;;;;;;;22.23;11.47;;;6.30;99.90;;;;;;5026046;28;20472;-53
2022/04/01 00:26:09;;;;;;;22.75;11.50;;;6.80;99.90;;;;;;5017908;28;20381;-53
2022/04/01 00:28:34;;;;;;;17.58;9.57;;;6.30;99.90;;;;;;5011818;28;20381;-53
2022/04/01 00:31:00;;;;;;;22.50;11.10;;;6.30;99.90;;;;;;5011299;28;20504;-53
2022/04/01 00:33:26;;;;;;;21.42;10.70;;;6.20;99.90;;;;;;5011865;28;20774;-54
2022/04/01 00:35:52;;;;;;;21.38;10.30;;;6.20;99.90;;;;;;5011124;28;20388;-53
2022/04/01 00:38:18;;;;;;;19.47;9.93;;;6.20;99.90;;;;;;5011923;28;20744;-53
2022/04/01 00:40:44;;;;;;;19.05;10.00;;;6.20;99.90;;;;;;5011264;28;20727;-57
2022/04/01 00:43:11;;;;;;;21.33;11.25;;;6.20;99.90;;;;;;5019271;28;20922;-53
2022/04/01 00:45:36;;;;;;;19.13;10.18;;;6.20;99.90;;;;;;5028026;28;20876;-53
2022/04/01 00:48:03;;;;;;;23.23;11.73;;;6.20;99.90;;;;;;5028505;28;20386;-53
2022/04/01 00:50:33;;;;;;;21.45;10.80;;;6.10;99.90;;;;;;5002999;28;20911;-53
2022/04/01 00:53:00;;;;;;;22.33;10.65;;;6.00;99.90;;;;;;5023010;28;20385;-53
2022/04/01 00:55:28;;;;;;;18.25;10.10;;;6.00;99.90;;;;;;5028306;28;20418;-53
2022/04/01 00:57:53;;;;;;;22.60;10.70;;;5.90;99.90;;;;;;5030134;28;20392;-53
2022/04/01 01:00:19;;;;;;;20.37;10.10;;;5.90;99.90;;;;;;5025368;28;20528;-53
2022/04/01 01:02:46;;;;;;;18.30;9.75;;;5.70;99.90;;;;;;5011064;28;20469;-53
2022/04/01 01:05:13;;;;;;;20.30;10.50;;;5.70;99.90;;;;;;5012379;28;20400;-53
2022/04/01 01:07:42;;;;;;;17.25;9.95;;;5.70;99.90;;;;;;5011301;28;20415;-52
2022/04/01 01:10:10;;;;;;;17.70;9.48;;;5.80;99.90;;;;;;5028136;28;20395;-53
2022/04/01 01:12:37;;;;;;;19.15;9.93;;;5.60;99.90;;;;;;5030904;28;20379;-53
2022/04/01 01:15:14;;;;;;;18.83;10.05;;;5.70;99.90;;;;;;5028275;28;20472;-53
2022/04/01 01:17:40;;;;;;;19.25;10.27;;;5.80;99.90;;;;;;5030922;28;20849;-53
2022/04/01 01:20:15;;;;;;;20.50;10.23;;;5.80;99.90;;;;;;5028316;28;20394;-53
2022/04/01 01:22:42;;;;;;;17.67;8.90;;;5.80;99.90;;;;;;5013742;28;20409;-53
2022/04/01 01:25:09;;;;;;;17.65;9.63;;;5.70;99.90;;;;;;5015954;28;20490;-53
2022/04/01 01:27:35;;;;;;;17.38;8.70;;;5.70;99.90;;;;;;5030574;28;20390;-53
2022/04/01 01:30:08;;;;;;;18.13;9.68;;;5.80;99.90;;;;;;5027804;28;20395;-53
2022/04/01 01:32:35;;;;;;;17.60;9.82;;;5.70;99.90;;;;;;5030269;28;20391;-53
2022/04/01 01:35:03;;;;;;;17.95;9.38;;;5.90;99.90;;;;;;4995187;28;20937;-53
2022/04/01 01:37:28;;;;;;;17.85;9.43;;;6.00;99.90;;;;;;5010564;28;20381;-53
2022/04/01 01:39:55;;;;;;;17.53;9.20;;;6.00;99.90;;;;;;5010876;28;20405;-53
2022/04/01 01:42:21;;;;;;;18.23;10.30;;;5.90;99.90;;;;;;5020100;28;20754;-53
2022/04/01 01:44:47;;;;;;;17.27;9.23;;;6.00;99.90;;;;;;5013250;28;20380;-53
2022/04/01 01:47:12;;;;;;;17.85;9.65;;;5.90;99.90;;;;;;5018778;28;20391;-53
2022/04/01 01:54:42;;;;;;;16.70;9.00;;;6.00;99.90;;;;;;5020018;28;20412;-53
2022/04/01 01:55:08;;;;;;;18.85;9.65;;;5.80;99.90;;;;;;5009627;28;20790;-53
2022/04/01 01:57:35;;;;;;;18.20;9.83;;;5.90;99.90;;;;;;5011462;28;20393;-53
2022/04/01 02:00:10;;;;;;;16.23;9.05;;;5.90;99.90;;;;;;5009972;28;20389;-53
2022/04/01 02:02:37;;;;;;;19.23;10.38;;;5.90;99.90;;;;;;5011339;28;20400;-54
2022/04/01 02:05:04;;;;;;;18.75;9.63;;;5.80;99.90;;;;;;5010747;28;20466;-53
2022/04/01 02:07:30;;;;;;;16.77;10.13;;;5.80;99.90;;;;;;5019263;28;20826;-53
2022/04/01 02:09:56;;;;;;;17.80;9.50;;;5.90;99.90;;;;;;5028897;28;20733;-53
2022/04/01 02:12:22;;;;;;;17.90;9.77;;;6.00;99.90;;;;;;5027971;28;20449;-54
2022/04/01 02:14:48;;;;;;;19.57;10.60;;;6.00;99.90;;;;;;5029088;28;20379;-52
2022/04/01 02:17:13;;;;;;;17.17;9.25;;;6.00;99.90;;;;;;5027981;28;20391;-53
2022/04/01 02:19:39;;;;;;;19.48;10.10;;;5.90;99.90;;;;;;5018858;28;20397;-53
2022/04/01 02:22:05;;;;;;;18.17;9.03;;;5.90;99.90;;;;;;5009979;28;20443;-53
2022/04/01 02:24:31;;;;;;;18.52;9.68;;;5.90;99.90;;;;;;5009905;28;20407;-53
2022/04/01 02:26:57;;;;;;;19.85;10.30;;;5.90;99.90;;;;;;5014204;28;20398;-53
2022/04/01 02:29:23;;;;;;;19.20;9.35;;;5.80;99.90;;;;;;5029746;28;20454;-53
2022/04/01 02:31:51;;;;;;;18.10;9.82;;;5.90;99.90;;;;;;5027219;28;20456;-52
2022/04/01 02:34:17;;;;;;;20.23;10.10;;;5.90;99.90;;;;;;5029807;28;20940;-53
2022/04/01 02:36:43;;;;;;;19.88;10.45;;;5.80;99.90;;;;;;5026043;28;20397;-53
2022/04/01 02:39:09;;;;;;;18.13;9.68;;;5.70;99.90;;;;;;5008969;28;20392;-53
2022/04/01 02:41:35;;;;;;;17.58;9.82;;;5.80;99.90;;;;;;5011057;28;20416;-53
2022/04/01 02:44:12;;;;;;;19.17;10.15;;;5.80;99.90;;;;;;5008936;28;20393;-53
2022/04/01 02:46:45;;;;;;;17.08;9.27;;;5.90;99.90;;;;;;5012180;28;20401;-53
2022/04/01 02:49:17;;;;;;;20.00;10.10;;;5.90;99.90;;;;;;5028770;28;20871;-53
2022/04/01 02:51:45;;;;;;;16.23;9.20;;;5.90;99.90;;;;;;5028258;28;20498;-53
2022/04/01 02:54:11;;;;;;;18.60;10.30;;;5.90;99.90;;;;;;5028999;28;20439;-53
2022/04/01 02:56:38;;;;;;;18.60;10.48;;;5.90;99.90;;;;;;5010014;28;20446;-53
2022/04/01 02:59:08;;;;;;;28.85;10.60;;;6.00;99.90;;;;;;5028738;28;20375;-53
2022/04/01 03:01:35;;;;;;;18.85;10.43;;;6.10;99.90;;;;;;5026976;28;20959;-53
2022/04/01 03:04:02;;;;;;;17.08;10.10;;;5.90;99.90;;;;;;5008868;28;20422;-53
2022/04/01 03:06:28;;;;;;;17.70;9.73;;;5.80;99.90;;;;;;4993400;28;20397;-53
2022/04/01 03:08:54;;;;;;;19.20;9.83;;;5.80;99.90;;;;;;5012097;28;20384;-53
2022/04/01 03:11:20;;;;;;;17.52;9.50;;;5.70;99.90;;;;;;5013160;28;20400;-52
2022/04/01 03:13:46;;;;;;;17.37;9.30;;;5.50;99.90;;;;;;5013875;28;20396;-52
2022/04/01 03:16:12;;;;;;;18.08;9.68;;;5.50;99.90;;;;;;5013067;28;20396;-53
2022/04/01 03:18:40;;;;;;;18.08;9.60;;;5.60;99.90;;;;;;5025095;28;20397;-53
2022/04/01 03:21:10;;;;;;;19.50;10.23;;;5.70;99.90;;;;;;5012667;28;20700;-53
2022/04/01 03:23:38;;;;;;;18.50;9.97;;;5.70;99.90;;;;;;5012954;28;20413;-53
2022/04/01 03:26:04;;;;;;;17.00;9.50;;;5.80;99.90;;;;;;5012173;28;20688;-53
2022/04/01 03:28:29;;;;;;;18.55;9.90;;;5.90;99.90;;;;;;5012838;28;20952;-53
2022/04/01 03:30:56;;;;;;;18.90;10.67;;;5.90;99.90;;;;;;5014369;28;20391;-53
2022/04/01 03:33:21;;;;;;;18.47;10.17;;;5.70;99.90;;;;;;5003678;28;20462;-53
2022/04/01 03:35:47;;;;;;;19.90;10.90;;;5.50;99.90;;;;;;4993047;28;20478;-52
2022/04/01 03:38:13;;;;;;;19.42;10.20;;;5.40;99.90;;;;;;5010369;28;20727;-53
2022/04/01 03:40:41;;;;;;;17.50;9.87;;;5.50;99.90;;;;;;5016291;28;20419;-53
2022/04/01 03:43:07;;;;;;;18.17;10.27;;;5.50;99.90;;;;;;5031617;28;20398;-53
2022/04/01 03:45:34;;;;;;;19.57;10.70;;;5.50;99.90;;;;;;5029137;28;20396;-53
2022/04/01 03:48:06;;;;;;;19.60;10.55;;;5.50;99.90;;;;;;5011899;28;20376;-53
2022/04/01 03:50:34;;;;;;;18.67;10.75;;;5.50;99.90;;;;;;4995808;28;20415;-53
2022/04/01 03:53:06;;;;;;;18.02;11.00;;;5.50;99.90;;;;;;5010790;28;20393;-52
2022/04/01 03:55:35;;;;;;;22.37;11.30;;;5.40;99.90;;;;;;5015159;28;20437;-53
2022/04/01 03:58:14;;;;;;;19.05;9.60;;;5.40;99.90;;;;;;5031497;28;20410;-52
2022/04/01 04:00:42;;;;;;;18.45;10.10;;;5.40;99.90;;;;;;5030277;28;20422;-53
2022/04/01 04:03:10;;;;;;;18.83;9.77;;;5.30;99.90;;;;;;5031320;28;20546;-52
2022/04/01 04:05:37;;;;;;;20.48;11.20;;;5.30;99.90;;;;;;5030488;28;20393;-52
2022/04/01 04:08:05;;;;;;;17.77;9.75;;;5.30;99.90;;;;;;5031427;28;20372;-53
2022/04/01 04:10:34;;;;;;;19.30;9.80;;;5.40;99.90;;;;;;5010879;28;20399;-53
2022/04/01 04:13:07;;;;;;;18.85;9.85;;;5.40;99.90;;;;;;5011562;28;20389;-52
2022/04/01 04:15:48;;;;;;;19.80;10.20;;;5.40;99.90;;;;;;5014363;28;20412;-53
2022/04/01 04:18:17;;;;;;;18.80;10.43;;;5.50;99.90;;;;;;5011518;28;20381;-53
2022/04/01 04:21:07;;;;;;;20.15;9.98;;;5.50;99.90;;;;;;5013240;28;20425;-54
2022/04/01 04:23:40;;;;;;;17.90;9.90;;;5.50;99.90;;;;;;4994375;28;20409;-53
2022/04/01 04:26:15;;;;;;;20.02;10.32;;;5.60;99.90;;;;;;5012363;28;20678;-54
2022/04/01 04:28:49;;;;;;;18.50;10.30;;;5.60;99.90;;;;;;5012059;28;20528;-53
2022/04/01 04:31:20;;;;;;;17.98;10.05;;;5.60;99.90;;;;;;5013335;28;20485;-52
2022/04/01 04:33:47;;;;;;;18.20;9.70;;;5.50;99.90;;;;;;5011781;28;20443;-52
2022/04/01 04:36:17;;;;;;;17.23;9.50;;;5.50;99.90;;;;;;5012012;28;20491;-52
2022/04/01 04:38:46;;;;;;;18.13;9.32;;;5.40;99.90;;;;;;5011826;28;20389;-54
2022/04/01 04:41:12;;;;;;;16.63;9.13;;;5.40;99.90;;;;;;5011747;28;20763;-52
2022/04/01 04:43:44;;;;;;;18.92;10.05;;;5.50;99.90;;;;;;5011611;28;20417;-52
2022/04/01 04:46:10;;;;;;;17.83;9.77;;;5.60;99.90;;;;;;5012097;28;21099;-52
2022/04/01 04:48:39;;;;;;;17.08;8.90;;;5.70;99.90;;;;;;5011190;28;20385;-52
2022/04/01 04:51:08;;;;;;;16.05;9.30;;;5.50;99.90;;;;;;5022749;28;20526;-52
2022/04/01 04:53:34;;;;;;;16.38;9.15;;;5.40;99.90;;;;;;5031116;28;20433;-52
2022/04/01 04:56:04;;;;;;;16.75;9.20;;;5.40;99.90;;;;;;5027501;28;20494;-52
2022/04/01 04:58:34;;;;;;;14.32;7.75;;;5.40;99.90;;;;;;5030924;28;20379;-52
2022/04/01 05:01:35;;;;;;;15.43;7.85;;;5.40;99.90;;;;;;5010925;28;20481;-52
2022/04/01 05:04:05;;;;;;;14.82;8.05;;;5.40;99.90;;;;;;5030229;28;20387;-52
2022/04/01 05:06:40;;;;;;;16.10;7.88;;;5.10;99.90;;;;;;5029354;28;20407;-52
2022/04/01 05:09:20;;;;;;;14.32;7.50;;;5.10;99.90;;;;;;5029904;28;20395;-52
2022/04/01 05:12:05;;;;;;;14.40;7.70;;;5.20;99.90;;;;;;5027087;28;20423;-52
2022/04/01 05:14:49;;;;;;;13.18;7.68;;;5.30;99.90;;;;;;5030985;28;20375;-52
2022/04/01 05:17:25;;;;;;;14.05;8.35;;;5.30;99.90;;;;;;4993044;28;20499;-52
2022/04/01 05:19:59;;;;;;;14.90;8.00;;;5.10;99.90;;;;;;5012249;28;20952;-52
2022/04/01 05:22:37;;;;;;;14.90;8.40;;;5.30;99.90;;;;;;5025489;28;20460;-52
2022/04/01 05:25:04;;;;;;;12.17;6.70;;;5.30;99.90;;;;;;5011490;28;20397;-52
2022/04/01 05:27:32;;;;;;;15.60;8.20;;;5.20;99.90;;;;;;5010770;28;20385;-52
2022/04/01 05:30:13;;;;;;;15.05;8.20;;;5.30;99.90;;;;;;5003277;28;20394;-52
2022/04/01 05:32:41;;;;;;;14.47;8.13;;;5.40;99.90;;;;;;5030620;28;20888;-52
2022/04/01 05:35:08;;;;;;;13.90;8.07;;;5.30;99.90;;;;;;5027647;28;20398;-53
2022/04/01 05:37:35;;;;;;;15.63;8.65;;;5.30;99.90;;;;;;5030373;28;20743;-53
2022/04/01 05:40:05;;;;;;;14.70;8.10;;;5.40;99.90;;;;;;5028214;28;20733;-52
2022/04/01 05:42:35;;;;;;;14.87;8.67;;;5.40;99.90;;;;;;5029146;28;20426;-52
2022/04/01 05:45:01;;;;;;;16.63;8.00;;;5.40;99.90;;;;;;5029593;28;20464;-53
2022/04/01 05:47:30;;;;;;;14.45;8.00;;;5.40;99.90;;;;;;5016739;28;20400;-53
2022/04/01 05:49:58;;;;;;;13.27;7.00;;;5.40;99.90;;;;;;5011217;28;20401;-52
2022/04/01 05:52:24;;;;;;;13.85;7.30;;;5.50;99.90;;;;;;5010312;28;20877;-52
2022/04/01 05:54:51;;;;;;;13.63;8.13;;;5.50;99.90;;;;;;5019342;28;20383;-52
2022/04/01 05:57:20;;;;;;;14.83;7.63;;;5.40;99.90;;;;;;5029898;28;20387;-53
2022/04/01 05:59:47;;;;;;;14.07;8.35;;;5.90;99.90;;;;;;5020199;28;20422;-53
2022/04/01 06:02:30;;;;;;;14.23;7.90;;;5.20;99.90;;;;;;5009954;28;20411;-53
2022/04/01 06:05:15;;;;;;;13.38;6.82;;;5.20;99.90;;;;;;5004178;28;20424;-52
2022/04/01 06:08:02;;;;;;;13.05;7.10;;;5.10;99.90;;;;;;5007399;28;20862;-53
2022/04/01 06:10:57;;;;;;;14.73;7.72;;;5.00;99.90;;;;;;5012073;28;20491;-53
2022/04/01 06:13:39;;;;;;;13.07;7.20;;;5.00;99.90;;;;;;4963785;28;20428;-54
2022/04/01 06:16:27;;;;;;;13.07;6.47;;;4.90;99.90;;;;;;5020010;28;20393;-55
2022/04/01 06:19:02;;;;;;;13.00;6.90;;;4.80;99.90;;;;;;5009005;28;20388;-54
2022/04/01 06:21:36;;;;;;;12.18;6.45;;;4.80;99.90;;;;;;5010124;28;20427;-54
2022/04/01 06:24:10;;;;;;;12.77;6.93;;;4.60;99.90;;;;;;5009004;28;20408;-54
2022/04/01 06:26:51;;;;;;;13.90;7.45;;;4.60;99.90;;;;;;5009640;28;20440;-55
2022/04/01 06:29:29;;;;;;;13.60;7.55;;;4.70;99.90;;;;;;5010070;28;20395;-54
2022/04/01 06:32:19;;;;;;;12.85;6.70;;;4.80;99.90;;;;;;5009290;28;20447;-54
2022/04/01 06:35:03;;;;;;;12.38;6.80;;;4.90;99.90;;;;;;5009758;28;20451;-54
2022/04/01 06:37:32;;;;;;;12.25;6.60;;;4.90;99.90;;;;;;5009601;28;20396;-53
2022/04/01 06:40:12;;;;;;;12.40;6.57;;;4.90;99.90;;;;;;5009195;28;20878;-53
2022/04/01 06:42:40;;;;;;;12.60;6.38;;;5.00;99.90;;;;;;5012313;28;20409;-55
2022/04/01 06:45:10;;;;;;;12.10;6.50;;;4.70;99.90;;;;;;5012493;28;20392;-52
2022/04/01 06:47:39;;;;;;;14.27;7.15;;;4.60;99.90;;;;;;4996390;28;20404;-52
2022/04/01 06:50:05;;;;;;;15.02;7.05;;;4.70;99.90;;;;;;5012978;28;20770;-52
2022/04/01 06:52:31;;;;;;;16.67;7.40;;;4.70;99.90;;;;;;5015892;28;20412;-53
2022/04/01 06:54:56;;;;;;;15.83;7.60;;;4.70;99.90;;;;;;5022965;28;20395;-52
2022/04/01 06:57:23;;;;;;;14.43;7.60;;;4.70;99.90;;;;;;5013327;28;20421;-55
2022/04/01 06:59:49;;;;;;;14.43;7.33;;;4.80;99.90;;;;;;5013545;28;20385;-54
2022/04/01 07:02:15;;;;;;;12.38;6.60;;;4.80;99.90;;;;;;5012980;28;20412;-54
2022/04/01 07:04:41;;;;;;;17.02;9.10;;;4.80;99.90;;;;;;5013637;28;20385;-54
2022/04/01 07:07:07;;;;;;;19.20;10.40;;;4.80;99.90;;;;;;5012513;28;20384;-53
2022/04/01 07:09:36;;;;;;;19.77;10.73;;;4.90;99.90;;;;;;4996066;28;20435;-53
2022/04/01 07:12:01;;;;;;;22.70;11.07;;;4.90;99.90;;;;;;5012406;28;20397;-53
2022/04/01 07:14:33;;;;;;;21.40;10.98;;;4.90;99.90;;;;;;5014173;28;20752;-55
2022/04/01 07:16:59;;;;;;;21.30;11.98;;;4.80;99.90;;;;;;5028943;28;20394;-52
2022/04/01 07:19:25;;;;;;;22.92;11.93;;;5.00;99.90;;;;;;5013098;28;20407;-54
2022/04/01 07:21:51;;;;;;;23.50;12.17;;;4.90;99.90;;;;;;4999828;28;20945;-53
2022/04/01 07:24:17;;;;;;;24.40;13.30;;;5.20;99.90;;;;;;5023570;28;20529;-54
2022/04/01 07:26:44;;;;;;;27.40;13.93;;;4.70;99.90;;;;;;5012515;28;20484;-55
2022/04/01 07:29:11;;;;;;;26.25;13.07;;;4.70;99.90;;;;;;5014755;28;20405;-54
2022/04/01 07:34:37;;;;;;;26.00;13.73;;;4.60;99.90;;;;;;5028663;28;20467;-53
2022/04/01 07:37:08;;;;;;;23.83;13.50;;;4.80;99.90;;;;;;5031860;28;20383;-54
2022/04/01 07:39:34;;;;;;;25.30;13.57;;;4.80;99.90;;;;;;5019895;28;20430;-54
2022/04/01 07:42:00;;;;;;;25.02;12.82;;;4.90;99.90;;;;;;5023888;28;20417;-54
2022/04/01 07:44:26;;;;;;;25.00;13.10;;;4.80;99.90;;;;;;4997908;28;20455;-54
2022/04/01 07:46:52;;;;;;;27.87;14.20;;;4.90;99.90;;;;;;5025337;28;20393;-53
2022/04/01 07:49:18;;;;;;;26.87;14.90;;;5.10;99.90;;;;;;5013609;28;20753;-54
2022/04/01 07:51:45;;;;;;;25.88;13.88;;;5.10;99.90;;;;;;5001142;28;20923;-53
2022/04/01 07:54:11;;;;;;;25.05;13.68;;;4.90;99.90;;;;;;5025571;28;20556;-54
2022/04/01 07:56:40;;;;;;;26.45;12.90;;;4.90;99.90;;;;;;5019880;28;20440;-54
2022/04/01 07:59:10;;;;;;;26.70;14.60;;;4.90;99.90;;;;;;5017506;28;20389;-53
2022/04/01 08:01:36;;;;;;;25.48;13.13;;;4.60;99.90;;;;;;5024110;28;20452;-54
2022/04/01 08:04:03;;;;;;;28.42;15.00;;;4.50;99.90;;;;;;4994081;28;20442;-53
2022/04/01 08:06:30;;;;;;;27.77;14.60;;;4.10;99.90;;;;;;5001934;28;20468;-53
2022/04/01 08:08:58;;;;;;;26.98;15.00;;;4.70;99.90;;;;;;4999842;28;20449;-53
2022/04/01 08:11:27;;;;;;;28.40;15.57;;;4.70;99.90;;;;;;5000092;28;20407;-53
2022/04/01 08:13:54;;;;;;;26.35;14.23;;;4.80;99.90;;;;;;5024371;28;20433;-53
2022/04/01 08:16:20;;;;;;;26.80;15.10;;;5.00;99.90;;;;;;5026392;28;20400;-53
2022/04/01 08:18:46;;;;;;;26.25;14.07;;;4.80;99.90;;;;;;5006772;28;20808;-54
2022/04/01 08:21:12;;;;;;;27.50;14.45;;;4.80;99.90;;;;;;5029126;28;20512;-53
2022/04/01 08:23:38;;;;;;;29.17;15.95;;;4.90;99.90;;;;;;5026268;28;20412;-54
2022/04/01 08:26:05;;;;;;;23.38;13.48;;;4.90;99.90;;;;;;5012842;28;20401;-54
2022/04/01 08:28:31;;;;;;;25.50;13.53;;;4.70;99.90;;;;;;5011413;28;20849;-54
2022/04/01 08:30:57;;;;;;;25.45;13.77;;;4.60;99.90;;;;;;5010983;28;20434;-53
2022/04/01 08:33:23;;;;;;;25.55;13.45;;;4.70;99.90;;;;;;5011390;28;20385;-53
2022/04/01 08:35:49;;;;;;;24.40;13.20;;;4.70;99.90;;;;;;5012650;28;20400;-53
2022/04/01 08:38:15;;;;;;;23.77;12.15;;;4.70;99.90;;;;;;4994147;28;20408;-58
2022/04/01 08:40:41;;;;;;;21.88;11.98;;;4.80;99.90;;;;;;5012965;28;20476;-54
2022/04/01 08:43:07;;;;;;;23.20;12.27;;;4.80;99.90;;;;;;5028985;28;20476;-53
2022/04/01 08:45:35;;;;;;;21.20;11.33;;;4.80;99.90;;;;;;5009165;28;20478;-53
2022/04/01 08:48:02;;;;;;;21.08;11.52;;;4.70;99.90;;;;;;5015552;28;20897;-53
2022/04/01 08:50:28;;;;;;;23.45;12.88;;;4.60;99.90;;;;;;5011892;28;20503;-53
2022/04/01 08:52:54;;;;;;;23.08;12.10;;;4.60;99.90;;;;;;5009319;28;20399;-53
2022/04/01 08:55:19;;;;;;;23.23;12.60;;;5.00;99.90;;;;;;5007464;28;20942;-53
2022/04/01 08:57:45;;;;;;;23.20;12.75;;;4.70;99.90;;;;;;5010406;28;20392;-53
2022/04/01 09:00:13;;;;;;;22.65;12.68;;;4.60;99.90;;;;;;5018361;28;21019;-54
2022/04/01 09:02:40;;;;;;;21.02;11.85;;;4.70;99.90;;;;;;5014014;28;20444;-53
2022/04/01 09:05:07;;;;;;;24.20;13.50;;;4.60;99.90;;;;;;5012595;28;20486;-52
2022/04/01 09:07:34;;;;;;;23.70;12.75;;;4.80;99.90;;;;;;5026282;28;20407;-52
2022/04/01 09:10:05;;;;;;;21.13;11.90;;;4.80;99.90;;;;;;5010542;28;20399;-52
2022/04/01 09:12:31;;;;;;;23.80;13.02;;;4.80;99.90;;;;;;5010436;28;20490;-53
2022/04/01 09:14:58;;;;;;;23.45;12.20;;;4.70;99.90;;;;;;5010008;28;20405;-53
2022/04/01 09:17:45;;;;;;;23.63;12.82;;;4.60;99.90;;;;;;5023766;28;20442;-54
2022/04/01 09:20:12;;;;;;;23.80;12.90;;;4.60;99.90;;;;;;5010288;28;20968;-52
2022/04/01 09:22:39;;;;;;;22.38;11.52;;;4.70;99.90;;;;;;5015090;28;20427;-54
2022/04/01 09:25:08;;;;;;;20.80;11.90;;;4.50;99.90;;;;;;5023326;28;20462;-54
2022/04/01 09:27:53;;;;;;;22.95;11.60;;;4.40;99.90;;;;;;4978807;28;20413;-54
2022/04/01 09:30:27;;;;;;;20.73;11.73;;;4.20;99.90;;;;;;5028936;28;20403;-54
2022/04/01 09:32:58;;;;;;;18.17;9.00;;;4.30;99.90;;;;;;5016655;28;20397;-53
2022/04/01 09:35:29;;;;;;;18.13;9.50;;;4.30;99.90;;;;;;5010504;28;20392;-54
2022/04/01 09:38:01;;;;;;;17.67;9.00;;;4.30;99.90;;;;;;4987588;28;20728;-53
2022/04/01 09:40:28;;;;;;;17.02;8.93;;;4.20;99.90;;;;;;5010842;28;20775;-54
2022/04/01 09:43:00;;;;;;;14.75;7.20;;;4.10;99.90;;;;;;5010960;28;20493;-53
2022/04/01 09:45:31;;;;;;;14.13;7.82;;;4.10;99.90;;;;;;5011807;28;20470;-55
2022/04/01 09:48:08;;;;;;;11.52;6.10;;;4.20;99.90;;;;;;5029714;28;20394;-53
2022/04/01 09:50:42;;;;;;;10.75;5.40;;;4.30;99.90;;;;;;5013424;28;20427;-53
2022/04/01 09:53:11;;;;;;;12.30;6.33;;;4.10;99.90;;;;;;5025042;28;20445;-53
2022/04/01 09:55:41;;;;;;;13.38;6.10;;;4.10;99.90;;;;;;5010621;28;20404;-54
2022/04/01 09:58:08;;;;;;;10.00;5.30;;;4.10;99.90;;;;;;5020912;28;20753;-57
2022/04/01 10:00:36;;;;;;;10.68;5.80;;;4.10;99.90;;;;;;5013991;28;20412;-53
2022/04/01 10:03:03;;;;;;;9.55;4.50;;;4.10;99.90;;;;;;5026728;28;20410;-55
2022/04/01 10:05:29;;;;;;;9.40;4.60;;;4.10;99.90;;;;;;5024764;28;20755;-53
2022/04/01 10:08:01;;;;;;;9.95;4.75;;;4.10;99.90;;;;;;5008773;28;20389;-55
2022/04/01 10:10:27;;;;;;;9.80;5.23;;;4.10;99.90;;;;;;5009606;28;20408;-54
2022/04/01 10:13:02;;;;;;;10.60;5.30;;;4.10;99.90;;;;;;5010629;28;20438;-54
2022/04/01 10:15:29;;;;;;;9.48;4.60;;;4.00;99.90;;;;;;5010241;28;20505;-54
2022/04/01 10:17:58;;;;;;;8.85;4.53;;;3.90;99.90;;;;;;5016023;28;20447;-54
2022/04/01 10:20:31;;;;;;;9.25;4.72;;;3.90;99.90;;;;;;5016990;28;20393;-54
2022/04/01 10:22:59;;;;;;;9.40;4.50;;;3.90;99.90;;;;;;5015366;28;20424;-54
2022/04/01 10:25:31;;;;;;;9.77;4.97;;;4.00;99.90;;;;;;5025120;28;20395;-53
2022/04/01 10:28:02;;;;;;;8.57;4.43;;;4.20;99.90;;;;;;5018379;28;20391;-53
2022/04/01 10:30:31;;;;;;;8.00;4.40;;;3.90;99.90;;;;;;5012708;28;20448;-54
2022/04/01 10:32:57;;;;;;;9.35;4.82;;;3.70;99.90;;;;;;5008746;28;20394;-53
2022/04/01 10:35:35;;;;;;;11.05;4.80;;;3.80;99.90;;;;;;5020590;28;20402;-54
2022/04/01 10:38:10;;;;;;;10.30;4.97;;;3.80;99.90;;;;;;5026426;28;20403;-54
2022/04/01 10:40:40;;;;;;;9.52;5.10;;;3.90;99.90;;;;;;5025506;28;20417;-54
2022/04/01 10:43:28;;;;;;;8.85;4.43;;;4.10;99.90;;;;;;4987795;28;20406;-54
2022/04/01 10:45:58;;;;;;;9.20;4.90;;;4.30;99.90;;;;;;5006657;28;20775;-54
2022/04/01 10:54:00;;;;;;;9.47;4.90;;;4.30;99.90;;;;;;5008911;28;20490;-53
2022/04/01 10:56:26;;;;;;;9.30;4.90;;;4.30;99.90;;;;;;5008710;28;20439;-53
2022/04/01 10:59:15;;;;;;;11.98;5.50;;;4.40;99.90;;;;;;5009112;28;20894;-53
2022/04/01 11:01:41;;;;;;;9.25;5.05;;;4.40;99.90;;;;;;4997998;28;20413;-53
2022/04/01 11:04:10;;;;;;;9.02;5.00;;;4.30;99.90;;;;;;5009648;28;20405;-52
2022/04/01 11:07:04;;;;;;;8.07;4.55;;;4.40;99.90;;;;;;5012310;28;20882;-52
2022/04/01 11:09:40;;;;;;;8.52;4.95;;;4.70;99.90;;;;;;5006392;28;20413;-53
2022/04/01 11:12:15;;;;;;;8.40;4.80;;;4.20;99.90;;;;;;5005482;28;20491;-52
2022/04/01 11:15:12;;;;;;;8.70;5.00;;;4.10;99.90;;;;;;5007409;28;20393;-53
2022/04/01 11:17:37;;;;;;;11.23;5.50;;;4.20;99.90;;;;;;4990255;28;20409;-52
2022/04/01 11:20:10;;;;;;;8.50;5.10;;;4.30;99.90;;;;;;4990494;28;20813;-52
2022/04/01 11:22:44;;;;;;;9.93;6.22;;;4.10;99.90;;;;;;5005754;28;20491;-52
2022/04/01 11:25:39;;;;;;;11.20;6.40;;;4.10;99.90;;;;;;5024684;28;20404;-53
2022/04/01 11:28:16;;;;;;;11.68;6.88;;;4.20;99.90;;;;;;5015128;28;20411;-52
2022/04/01 11:31:03;;;;;;;11.40;6.70;;;4.10;99.90;;;;;;5030910;28;20403;-52
2022/04/01 11:33:29;;;;;;;13.90;9.10;;;4.00;99.90;;;;;;5025167;28;20412;-53
2022/04/01 11:35:57;;;;;;;14.73;8.57;;;3.90;99.90;;;;;;5032410;28;20390;-52
2022/04/01 11:38:29;;;;;;;13.73;8.02;;;4.10;99.90;;;;;;5020365;28;20455;-53
2022/04/01 11:40:58;;;;;;;12.77;7.60;;;4.00;99.90;;;;;;5008690;28;20460;-53
2022/04/01 11:43:26;;;;;;;11.23;6.68;;;4.10;99.90;;;;;;5022832;28;20402;-53
2022/04/01 11:45:57;;;;;;;11.10;6.80;;;3.80;99.90;;;;;;5014403;28;20397;-53
2022/04/01 11:48:45;;;;;;;12.00;7.28;;;3.80;99.90;;;;;;5009151;28;20420;-54
2022/04/01 11:51:14;;;;;;;13.10;7.50;;;4.00;99.90;;;;;;5009671;28;20400;-53
2022/04/01 11:53:45;;;;;;;13.85;7.90;;;4.10;99.90;;;;;;5013835;28;21142;-53
2022/04/01 11:56:14;;;;;;;13.40;7.60;;;4.10;99.90;;;;;;5011516;28;20884;-52
2022/04/01 11:58:51;;;;;;;12.60;7.47;;;4.00;99.90;;;;;;5013671;28;20477;-53
2022/04/01 12:01:18;;;;;;;14.18;8.10;;;3.90;99.90;;;;;;5010910;28;20487;-53
2022/04/01 12:03:44;;;;;;;16.27;9.05;;;3.90;99.90;;;;;;5016281;28;20405;-53
2022/04/01 12:08:54;;;;;;;13.23;7.63;;;4.00;99.90;;;;;;5008168;28;20750;-53
2022/04/01 12:11:20;;;;;;;13.50;7.87;;;3.80;99.90;;;;;;4992694;28;20396;-55
2022/04/01 12:13:53;;;;;;;13.47;8.10;;;3.70;99.90;;;;;;5011881;28;20486;-53
2022/04/01 12:16:21;;;;;;;14.65;8.80;;;4.00;99.90;;;;;;5011803;28;20883;-53
2022/04/01 12:18:49;;;;;;;15.20;9.68;;;3.90;99.90;;;;;;5013090;28;20424;-53
2022/04/01 12:21:24;;;;;;;14.80;8.75;;;4.20;99.90;;;;;;5012129;28;20439;-53
2022/04/01 12:23:51;;;;;;;14.23;8.65;;;4.10;99.90;;;;;;5009481;28;20507;-54
2022/04/01 12:26:20;;;;;;;15.07;8.38;;;4.00;99.90;;;;;;5006470;28;20421;-54
2022/04/01 12:28:49;;;;;;;13.53;8.50;;;4.10;99.90;;;;;;5006907;28;20409;-53
2022/04/01 12:31:26;;;;;;;13.80;8.07;;;3.90;99.90;;;;;;5011658;28;20401;-55
2022/04/01 12:33:55;;;;;;;14.13;8.50;;;3.90;99.90;;;;;;5014065;28;20500;-54
2022/04/01 12:36:35;;;;;;;13.40;7.68;;;3.70;99.90;;;;;;5012124;28;20944;-54
2022/04/01 12:39:11;;;;;;;14.05;8.15;;;3.70;99.90;;;;;;5010558;28;20389;-54
2022/04/01 12:41:52;;;;;;;14.98;8.60;;;3.90;99.90;;;;;;5010062;28;20408;-54
2022/04/01 12:44:23;;;;;;;16.55;8.50;;;3.90;99.90;;;;;;5004428;28;20451;-54
2022/04/01 12:46:49;;;;;;;15.48;8.98;;;3.70;99.90;;;;;;5011459;28;20365;-54
2022/04/01 12:49:17;;;;;;;15.73;9.57;;;3.40;99.90;;;;;;4983637;28;20409;-54
2022/04/01 12:52:00;;;;;;;17.92;10.20;;;3.50;99.90;;;;;;5009480;28;20415;-54
2022/04/01 12:54:43;;;;;;;17.38;11.10;;;3.40;99.90;;;;;;5005702;28;20389;-54
2022/04/01 12:57:11;;;;;;;20.38;10.90;;;3.60;99.90;;;;;;5010408;28;20438;-54
2022/04/01 12:59:39;;;;;;;19.02;11.07;;;3.70;99.90;;;;;;5010862;28;20400;-54
2022/04/01 13:02:07;;;;;;;20.85;12.00;;;3.50;99.90;;;;;;5009059;28;20409;-54
2022/04/01 13:04:49;;;;;;;19.63;11.95;;;3.70;99.90;;;;;;4993586;28;20832;-54
2022/04/01 13:07:21;;;;;;;19.80;11.57;;;4.00;99.90;;;;;;5005423;28;20436;-54
2022/04/01 13:09:51;;;;;;;19.30;11.50;;;4.00;99.90;;;;;;4992322;28;20774;-54
2022/04/01 13:12:28;;;;;;;17.90;10.20;;;4.10;99.90;;;;;;5002974;28;20396;-54